createdAt,value
2023-05-20T00:01:20.193Z,95559.81
2023-05-20T00:03:48.169Z,95554.50
2023-05-20T00:06:17.499Z,95554.50
2023-05-20T00:08:45.341Z,95550.22
2023-05-20T00:11:12.979Z,95549.19
2023-05-20T00:13:40.639Z,95548.38
2023-05-20T00:16:08.466Z,95547.38
2023-05-20T00:18:36.427Z,95552.47
2023-05-20T00:21:04.093Z,95548.78
2023-05-20T00:23:33.253Z,95545.09
2023-05-20T00:26:01.068Z,95550.41
2023-05-20T00:28:28.910Z,95547.31
2023-05-20T00:30:56.611Z,95543.25
2023-05-20T00:33:24.272Z,95544.88
2023-05-20T00:35:51.952Z,95543.47
2023-05-20T00:38:20.179Z,95538.16
2023-05-20T00:40:49.596Z,95529.16
2023-05-20T00:43:17.414Z,95537.72
2023-05-20T00:45:45.063Z,95525.03
2023-05-20T00:48:13.606Z,95534.03
2023-05-20T00:50:41.521Z,95527.09
2023-05-20T00:53:10.031Z,95532.41
2023-05-20T00:55:38.336Z,95532.41
2023-05-20T00:58:07.471Z,95536.53
2023-05-20T01:00:36.389Z,95519.16
2023-05-20T01:03:04.191Z,95523.06
2023-05-20T01:05:32.167Z,95527.56
2023-05-20T01:07:59.866Z,95530.84
2023-05-20T01:10:30.373Z,95523.69
2023-05-20T01:13:02.728Z,95510.00
2023-05-20T01:15:32.955Z,95512.06
2023-05-20T01:18:06.302Z,95514.13
2023-05-20T01:20:34.758Z,95514.13
2023-05-20T01:23:04.427Z,95521.06
2023-05-20T01:25:32.460Z,95508.81
2023-05-20T01:28:00.285Z,95516.19
2023-05-20T01:30:32.058Z,95514.94
2023-05-20T01:33:08.623Z,95505.13
2023-05-20T01:35:37.465Z,95513.91
2023-05-20T01:38:07.787Z,95517.59
2023-05-20T01:40:36.123Z,95526.38
2023-05-20T01:43:04.608Z,95516.56
2023-05-20T01:45:32.678Z,95523.50
2023-05-20T01:48:01.718Z,95514.50
2023-05-20T01:50:29.488Z,95514.94
2023-05-20T01:52:57.288Z,95515.38
2023-05-20T01:55:27.201Z,95508.22
2023-05-20T01:57:55.716Z,95508.63
2023-05-20T02:00:23.850Z,95512.91
2023-05-20T02:02:51.961Z,95496.16
2023-05-20T02:05:19.791Z,95505.75
2023-05-20T02:07:47.697Z,95506.38
2023-05-20T02:10:15.388Z,95506.38
2023-05-20T02:12:44.982Z,95505.38
2023-05-20T02:15:12.939Z,95505.97
2023-05-20T02:17:43.758Z,95500.06
2023-05-20T02:20:12.468Z,95500.28
2023-05-20T02:22:40.206Z,95497.84
2023-05-20T02:25:09.390Z,95494.53
2023-05-20T02:27:37.634Z,95505.38
2023-05-20T02:30:08.376Z,95499.69
2023-05-20T02:32:36.410Z,95495.41
2023-05-20T02:35:04.252Z,95496.66
2023-05-20T02:37:31.993Z,95492.97
2023-05-20T02:39:59.792Z,95494.22
2023-05-20T02:42:27.448Z,95501.78
2023-05-20T02:44:58.526Z,95504.44
2023-05-20T02:47:28.252Z,95496.69
2023-05-20T02:49:56.516Z,95495.44
2023-05-20T02:52:24.243Z,95495.44
2023-05-20T02:54:52.809Z,95497.69
2023-05-20T02:57:20.700Z,95495.44
2023-05-20T02:59:48.587Z,95502.81
2023-05-20T03:02:16.385Z,95508.13
2023-05-20T03:04:46.841Z,95505.88
2023-05-20T03:07:17.693Z,95511.19
2023-05-20T03:09:45.348Z,95511.19
2023-05-20T03:12:13.040Z,95517.31
2023-05-20T03:14:40.698Z,95517.53
2023-05-20T03:17:09.350Z,95508.53
2023-05-20T03:19:37.091Z,95521.81
2023-05-20T03:22:07.386Z,95518.13
2023-05-20T03:24:35.714Z,95508.13
2023-05-20T03:27:03.641Z,95502.59
2023-05-20T03:29:31.324Z,95499.97
2023-05-20T03:31:59.095Z,95485.25
2023-05-20T03:34:28.121Z,95492.63
2023-05-20T03:36:57.408Z,95486.72
2023-05-20T03:39:26.562Z,95494.03
2023-05-20T03:41:54.340Z,95502.00
2023-05-20T03:44:22.023Z,95499.34
2023-05-20T03:46:50.163Z,95507.31
2023-05-20T03:49:17.913Z,95516.31
2023-05-20T03:51:45.698Z,95502.44
2023-05-20T03:54:16.677Z,95503.03
2023-05-20T03:56:50.515Z,95499.75
2023-05-20T03:59:18.168Z,95491.00
2023-05-20T04:01:47.101Z,95500.78
2023-05-20T04:04:15.240Z,95499.56
2023-05-20T04:06:43.291Z,95488.72
2023-05-20T04:09:11.120Z,95481.19
2023-05-20T04:11:38.820Z,95487.31
2023-05-20T04:14:08.060Z,95484.06
2023-05-20T04:16:37.346Z,95489.75
2023-05-20T04:19:05.591Z,95477.72
2023-05-20T04:21:33.492Z,95485.31
2023-05-20T04:24:01.289Z,95490.63
2023-05-20T04:26:28.993Z,95488.97
2023-05-20T04:28:59.103Z,95492.84
2023-05-20T04:31:28.778Z,95493.03
2023-05-20T04:33:56.790Z,95493.88
2023-05-20T04:36:28.760Z,95485.50
2023-05-20T04:38:57.192Z,95493.03
2023-05-20T04:41:25.101Z,95489.38
2023-05-20T04:43:53.856Z,95492.03
2023-05-20T04:46:21.585Z,95500.16
2023-05-20T04:48:50.765Z,95486.09
2023-05-20T04:51:18.583Z,95489.38
2023-05-20T04:53:46.489Z,95486.28
2023-05-20T04:56:15.487Z,95490.13
2023-05-20T04:58:43.864Z,95489.53
2023-05-20T05:01:11.726Z,95494.84
2023-05-20T05:03:39.435Z,95494.69
2023-05-20T05:06:08.717Z,95485.25
2023-05-20T05:08:36.402Z,95495.50
2023-05-20T05:11:06.708Z,95494.69
2023-05-20T05:13:34.677Z,95498.31
2023-05-20T05:16:03.659Z,95491.41
2023-05-20T05:18:32.927Z,95491.59
2023-05-20T05:21:02.300Z,95490.13
2023-05-20T05:23:32.038Z,95478.69
2023-05-20T05:26:00.553Z,95480.72
2023-05-20T05:28:28.730Z,95475.78
2023-05-20T05:30:57.076Z,95477.50
2023-05-20T05:33:24.839Z,95478.66
2023-05-20T05:35:53.223Z,95478.66
2023-05-20T05:38:21.025Z,95479.03
2023-05-20T05:40:50.108Z,95482.72
2023-05-20T05:43:18.384Z,95483.16
2023-05-20T05:45:48.750Z,95484.78
2023-05-20T05:48:16.538Z,95486.41
2023-05-20T05:50:46.890Z,95490.09
2023-05-20T05:53:16.577Z,95490.09
2023-05-20T05:55:47.605Z,95486.84
2023-05-20T05:58:17.741Z,95490.72
2023-05-20T06:00:45.988Z,95485.63
2023-05-20T06:03:13.762Z,95486.84
2023-05-20T06:05:41.454Z,95494.53
2023-05-20T06:08:09.256Z,95489.00
2023-05-20T06:10:37.648Z,95487.16
2023-05-20T06:13:05.902Z,95488.53
2023-05-20T06:15:36.619Z,95488.94
2023-05-20T06:18:04.760Z,95488.28
2023-05-20T06:20:33.815Z,95495.63
2023-05-20T06:23:04.032Z,95495.41
2023-05-20T06:25:43.909Z,95495.22
2023-05-20T06:28:12.632Z,95496.44
2023-05-20T06:30:43.412Z,95497.94
2023-05-20T06:33:11.604Z,95491.78
2023-05-20T06:35:39.437Z,95484.38
2023-05-20T06:38:07.140Z,95483.91
2023-05-20T06:40:34.935Z,95474.97
2023-05-20T06:43:02.601Z,95472.34
2023-05-20T06:45:50.868Z,95480.69
2023-05-20T06:48:24.248Z,95478.75
2023-05-20T06:50:52.051Z,95484.88
2023-05-20T06:53:19.991Z,95476.72
2023-05-20T06:55:47.897Z,95483.66
2023-05-20T06:58:15.688Z,95480.25
2023-05-20T07:00:44.480Z,95482.09
2023-05-20T07:03:13.948Z,95472.34
2023-05-20T07:05:41.672Z,95473.34
2023-05-20T07:08:11.338Z,95474.53
2023-05-20T07:10:39.309Z,95473.75
2023-05-20T07:13:07.362Z,95469.63
2023-05-20T07:15:35.265Z,95465.19
2023-05-20T07:18:03.145Z,95459.09
2023-05-20T07:20:32.291Z,95465.00
2023-05-20T07:23:04.465Z,95469.75
2023-05-20T07:25:38.798Z,95462.00
2023-05-20T07:28:08.133Z,95467.25
2023-05-20T07:30:36.773Z,95455.75
2023-05-20T07:33:16.395Z,95463.72
2023-05-20T07:35:47.321Z,95459.50
2023-05-20T07:38:15.104Z,95452.97
2023-05-20T07:40:44.795Z,95451.66
2023-05-20T07:43:12.600Z,95451.72
2023-05-20T07:45:40.650Z,95452.22
2023-05-20T07:48:08.946Z,95448.56
2023-05-20T07:50:37.895Z,95452.59
2023-05-20T07:53:07.061Z,95448.22
2023-05-20T07:55:37.077Z,95445.13
2023-05-20T07:58:06.212Z,95446.56
2023-05-20T08:00:35.828Z,95439.78
2023-05-20T08:03:08.152Z,95436.19
2023-05-20T08:06:08.938Z,95431.94
2023-05-20T08:08:40.550Z,95430.56
2023-05-20T08:11:14.925Z,95431.59
2023-05-20T08:13:42.978Z,95430.31
2023-05-20T08:16:10.950Z,95437.41
2023-05-20T08:18:38.800Z,95445.84
2023-05-20T08:21:07.916Z,95446.19
2023-05-20T08:23:38.718Z,95442.84
2023-05-20T08:26:09.327Z,95443.31
2023-05-20T08:28:41.147Z,95447.66
2023-05-20T08:31:09.767Z,95451.00
2023-05-20T08:33:37.832Z,95438.72
2023-05-20T08:36:06.553Z,95445.78
2023-05-20T08:38:34.462Z,95449.72
2023-05-20T08:41:03.935Z,95445.44
2023-05-20T08:43:34.408Z,95453.19
2023-05-20T08:46:06.567Z,95458.44
2023-05-20T08:48:36.909Z,95449.63
2023-05-20T08:51:05.196Z,95450.56
2023-05-20T08:53:32.988Z,95451.72
2023-05-20T08:56:03.581Z,95443.94
2023-05-20T08:58:33.615Z,95448.69
2023-05-20T09:01:02.425Z,95447.31
2023-05-20T09:03:30.520Z,95444.25
2023-05-20T09:06:05.663Z,95444.19
2023-05-20T09:08:34.225Z,95445.50
2023-05-20T09:11:02.951Z,95442.72
2023-05-20T09:13:33.977Z,95435.88
2023-05-20T09:16:02.702Z,95431.56
2023-05-20T09:18:30.986Z,95431.78
2023-05-20T09:20:58.908Z,95422.44
2023-05-20T09:23:28.007Z,95420.19
2023-05-20T09:25:55.718Z,95414.34
2023-05-20T09:28:25.665Z,95413.34
2023-05-20T09:30:59.830Z,95414.16
2023-05-20T09:33:32.153Z,95413.66
2023-05-20T09:36:08.511Z,95411.19
2023-05-20T09:38:40.077Z,95414.41
2023-05-20T09:41:09.320Z,95403.50
2023-05-20T09:43:37.597Z,95407.00
2023-05-20T09:46:07.122Z,95401.31
2023-05-20T09:48:37.181Z,95396.84
2023-05-20T09:51:06.150Z,95389.66
2023-05-20T09:53:34.013Z,95407.69
2023-05-20T09:56:01.780Z,95405.56
2023-05-20T09:58:30.615Z,95400.78
2023-05-20T10:00:58.515Z,95406.16
2023-05-20T10:03:28.062Z,95396.47
2023-05-20T10:06:11.918Z,95396.13
2023-05-20T10:08:56.987Z,95398.25
2023-05-20T10:11:36.813Z,95396.47
2023-05-20T10:14:23.291Z,95386.78
2023-05-20T10:16:54.959Z,95391.63
2023-05-20T10:19:30.289Z,95389.47
2023-05-20T10:21:59.632Z,95394.84
2023-05-20T10:24:33.102Z,95390.00
2023-05-20T10:27:03.331Z,95392.94
2023-05-20T10:29:31.958Z,95390.81
2023-05-20T10:31:59.678Z,95394.84
2023-05-20T10:34:29.018Z,95378.94
2023-05-20T10:37:00.216Z,95367.88
2023-05-20T10:39:29.444Z,95370.25
2023-05-20T10:42:07.432Z,95366.19
2023-05-20T10:44:45.422Z,95362.97
2023-05-20T10:49:47.736Z,95350.34
2023-05-20T10:52:16.096Z,95351.47
2023-05-20T10:54:49.400Z,95365.00
2023-05-20T10:57:19.538Z,95364.59
2023-05-20T10:59:48.445Z,95358.22
2023-05-20T11:02:17.431Z,95359.00
2023-05-20T11:04:47.105Z,95351.69
2023-05-20T11:07:25.266Z,95350.53
2023-05-20T11:09:53.022Z,95340.44
2023-05-20T11:12:21.650Z,95337.09
2023-05-20T11:14:49.806Z,95342.59
2023-05-20T11:17:18.289Z,95332.31
2023-05-20T11:19:49.253Z,95330.50
2023-05-20T11:22:17.214Z,95328.88
2023-05-20T11:24:44.905Z,95341.59
2023-05-20T11:27:12.673Z,95331.00
2023-05-20T11:29:41.370Z,95325.06
2023-05-20T11:32:09.414Z,95333.34
2023-05-20T11:34:38.537Z,95319.91
2023-05-20T11:37:09.897Z,95320.47
2023-05-20T11:39:39.045Z,95321.03
2023-05-20T11:42:07.023Z,95315.13
2023-05-20T11:44:35.265Z,95315.22
2023-05-20T11:47:04.110Z,95307.69
2023-05-20T11:49:32.121Z,95312.72
2023-05-20T11:51:59.786Z,95305.19
2023-05-20T11:54:29.066Z,95299.63
2023-05-20T11:56:56.964Z,95304.31
2023-05-20T11:59:25.442Z,95306.75
2023-05-20T12:01:53.107Z,95305.78
2023-05-20T12:04:21.996Z,95309.16
2023-05-20T12:06:49.717Z,95297.63
2023-05-20T12:09:17.599Z,95311.97
2023-05-20T12:11:46.587Z,95304.66
2023-05-20T12:14:14.464Z,95294.75
2023-05-20T12:16:42.246Z,95306.25
2023-05-20T12:19:09.930Z,95297.63
2023-05-20T12:21:37.868Z,95283.56
2023-05-20T12:24:07.088Z,95284.00
2023-05-20T12:26:36.103Z,95281.28
2023-05-20T12:29:05.122Z,95280.69
2023-05-20T12:31:34.969Z,95278.16
2023-05-20T12:34:02.858Z,95280.94
2023-05-20T12:36:31.543Z,95282.91
2023-05-20T12:38:59.261Z,95284.75
2023-05-20T12:41:26.929Z,95272.56
2023-05-20T12:43:54.997Z,95275.78
2023-05-20T12:46:24.278Z,95273.81
2023-05-20T12:48:52.342Z,95271.88
2023-05-20T12:51:21.205Z,95262.72
2023-05-20T12:53:48.999Z,95246.91
2023-05-20T12:56:17.005Z,95245.75
2023-05-20T12:58:44.632Z,95251.47
2023-05-20T13:01:12.344Z,95240.25
2023-05-20T13:03:41.686Z,95240.66
2023-05-20T13:06:09.649Z,95237.78
2023-05-20T13:08:37.398Z,95236.66
2023-05-20T13:11:05.294Z,95243.72
2023-05-20T13:13:33.084Z,95232.44
2023-05-20T13:16:00.749Z,95231.75
2023-05-20T13:18:28.405Z,95233.94
2023-05-20T13:20:57.439Z,95238.19
2023-05-20T13:23:25.211Z,95229.50
2023-05-20T13:25:52.894Z,95222.78
2023-05-20T13:28:21.571Z,95217.94
2023-05-20T13:30:49.269Z,95211.28
2023-05-20T13:33:17.123Z,95209.91
2023-05-20T13:35:44.759Z,95198.50
2023-05-20T13:38:13.892Z,95195.75
2023-05-20T13:40:41.600Z,95195.09
2023-05-20T13:43:09.708Z,95195.81
2023-05-20T13:45:37.332Z,95191.66
2023-05-20T13:48:05.609Z,95190.41
2023-05-20T13:50:33.449Z,95179.84
2023-05-20T13:53:01.225Z,95184.13
2023-05-20T13:55:30.324Z,95184.06
2023-05-20T13:57:58.080Z,95176.28
2023-05-20T14:00:25.984Z,95172.44
2023-05-20T14:02:53.746Z,95168.06
2023-05-20T14:05:21.553Z,95169.13
2023-05-20T14:07:49.214Z,95169.03
2023-05-20T14:10:17.159Z,95163.00
2023-05-20T14:12:48.102Z,95167.53
2023-05-20T14:15:16.193Z,95160.81
2023-05-20T14:17:43.844Z,95162.22
2023-05-20T14:20:12.232Z,95162.44
2023-05-20T14:22:39.885Z,95165.38
2023-05-20T14:25:08.772Z,95146.00
2023-05-20T14:27:36.634Z,95146.34
2023-05-20T14:30:07.482Z,95153.91
2023-05-20T14:32:35.150Z,95144.63
2023-05-20T14:35:03.300Z,95155.16
2023-05-20T14:37:30.977Z,95144.31
2023-05-20T14:39:58.746Z,95140.56
2023-05-20T14:42:26.711Z,95141.50
2023-05-20T14:44:54.474Z,95135.94
2023-05-20T14:47:23.719Z,95140.25
2023-05-20T14:49:51.588Z,95142.59
2023-05-20T14:52:19.879Z,95141.88
2023-05-20T14:54:47.712Z,95138.47
2023-05-20T14:57:15.891Z,95136.84
2023-05-20T14:59:43.963Z,95141.59
2023-05-20T15:02:15.436Z,95145.44
2023-05-20T15:04:46.764Z,95145.19
2023-05-20T15:07:15.064Z,95143.34
2023-05-20T15:09:43.661Z,95143.44
2023-05-20T15:12:12.335Z,95151.09
2023-05-20T15:14:58.567Z,95152.16
2023-05-20T15:17:26.693Z,95160.94
2023-05-20T15:19:55.692Z,95156.25
2023-05-20T15:22:24.172Z,95153.22
2023-05-20T15:24:51.854Z,95162.25
2023-05-20T15:27:19.926Z,95158.59
2023-05-20T15:29:48.676Z,95160.78
2023-05-20T15:32:19.860Z,95166.03
2023-05-20T15:34:47.832Z,95156.06
2023-05-20T15:37:17.047Z,95150.50
2023-05-20T15:39:44.747Z,95150.13
2023-05-20T15:42:13.837Z,95160.28
2023-05-20T15:44:41.563Z,95157.22
2023-05-20T15:47:09.217Z,95149.38
2023-05-20T15:49:37.009Z,95153.72
2023-05-20T15:52:05.468Z,95156.31
2023-05-20T15:54:34.501Z,95157.34
2023-05-20T15:57:02.531Z,95150.81
2023-05-20T15:59:30.619Z,95148.63
2023-05-20T16:01:58.476Z,95145.41
2023-05-20T16:04:26.292Z,95136.44
2023-05-20T16:06:53.959Z,95143.44
2023-05-20T16:09:22.184Z,95145.59
2023-05-20T16:11:51.370Z,95139.63
2023-05-20T16:14:19.153Z,95145.53
2023-05-20T16:16:46.982Z,95143.75
2023-05-20T16:19:14.840Z,95138.19
2023-05-20T16:21:42.657Z,95147.00
2023-05-20T16:24:10.622Z,95148.84
2023-05-20T16:26:38.538Z,95145.78
2023-05-20T16:29:07.525Z,95149.78
2023-05-20T16:31:35.715Z,95150.31
2023-05-20T16:34:04.733Z,95142.75
2023-05-20T16:36:32.627Z,95150.25
2023-05-20T16:39:00.384Z,95143.91
2023-05-20T16:41:28.637Z,95147.91
2023-05-20T16:43:56.259Z,95141.81
2023-05-20T16:46:25.480Z,95154.19
2023-05-20T16:48:53.098Z,95154.78
2023-05-20T16:51:20.932Z,95158.13
2023-05-20T16:53:48.575Z,95159.75
2023-05-20T16:56:16.394Z,95163.56
2023-05-20T16:58:44.011Z,95159.84
2023-05-20T17:01:12.003Z,95157.72
2023-05-20T17:03:41.143Z,95163.09
2023-05-20T17:06:09.504Z,95167.97
2023-05-20T17:08:37.997Z,95159.44
2023-05-20T17:11:06.149Z,95157.59
2023-05-20T17:13:33.784Z,95166.47
2023-05-20T17:16:01.704Z,95172.47
2023-05-20T17:18:29.456Z,95175.16
2023-05-20T17:20:58.547Z,95176.81
2023-05-20T17:23:26.322Z,95171.75
2023-05-20T17:25:53.953Z,95173.63
2023-05-20T17:28:22.209Z,95183.06
2023-05-20T17:30:49.868Z,95182.53
2023-05-20T17:33:17.771Z,95170.97
2023-05-20T17:35:45.517Z,95174.19
2023-05-20T17:38:14.721Z,95174.22
2023-05-20T17:40:42.395Z,95171.00
2023-05-20T17:43:10.427Z,95175.84
2023-05-20T17:45:38.033Z,95175.31
2023-05-20T17:48:08.774Z,95171.53
2023-05-20T17:50:38.682Z,95174.78
2023-05-20T17:53:06.901Z,95172.09
2023-05-20T17:55:36.959Z,95175.84
2023-05-20T17:58:04.958Z,95175.34
2023-05-20T18:00:34.484Z,95174.25
2023-05-20T18:03:02.726Z,95174.53
2023-05-20T18:05:30.644Z,95168.88
2023-05-20T18:07:58.361Z,95177.47
2023-05-20T18:10:26.326Z,95174.47
2023-05-20T18:12:55.342Z,95174.47
2023-05-20T18:15:23.515Z,95172.56
2023-05-20T18:17:51.213Z,95177.66
2023-05-20T18:20:19.292Z,95168.25
2023-05-20T18:22:46.978Z,95176.81
2023-05-20T18:25:15.092Z,95175.72
2023-05-20T18:27:43.652Z,95170.31
2023-05-20T18:30:12.975Z,95172.22
2023-05-20T18:32:40.655Z,95175.09
2023-05-20T18:35:09.084Z,95170.47
2023-05-20T18:37:36.779Z,95166.41
2023-05-20T18:40:06.450Z,95176.56
2023-05-20T18:42:34.235Z,95174.34
2023-05-20T18:45:02.227Z,95169.22
2023-05-20T18:47:31.397Z,95175.63
2023-05-20T18:49:59.243Z,95173.19
2023-05-20T18:52:27.051Z,95177.94
2023-05-20T18:54:54.857Z,95178.44
2023-05-20T18:57:22.650Z,95175.44
2023-05-20T18:59:50.655Z,95178.31
2023-05-20T19:02:18.612Z,95179.88
2023-05-20T19:04:47.758Z,95182.22
2023-05-20T19:07:15.566Z,95178.13
2023-05-20T19:09:43.201Z,95186.16
2023-05-20T19:12:11.312Z,95194.13
2023-05-20T19:14:38.945Z,95195.72
2023-05-20T19:17:06.999Z,95195.09
2023-05-20T19:19:34.767Z,95201.47
2023-05-20T19:22:04.156Z,95200.38
2023-05-20T19:24:32.266Z,95203.50
2023-05-20T19:27:00.387Z,95194.38
2023-05-20T19:29:28.131Z,95198.03
2023-05-20T19:31:56.585Z,95197.44
2023-05-20T19:34:24.471Z,95196.81
2023-05-20T19:36:52.271Z,95203.16
2023-05-20T19:39:22.154Z,95197.69
2023-05-20T19:41:50.160Z,95191.19
2023-05-20T19:44:18.983Z,95198.06
2023-05-20T19:46:48.053Z,95193.22
2023-05-20T19:49:15.845Z,95193.13
2023-05-20T19:51:44.009Z,95196.31
2023-05-20T19:54:12.016Z,95201.53
2023-05-20T19:56:41.048Z,95203.72
2023-05-20T19:59:08.673Z,95200.34
2023-05-20T20:01:36.466Z,95200.63
2023-05-20T20:04:04.288Z,95203.94
2023-05-20T20:06:32.400Z,95201.75
2023-05-20T20:09:00.349Z,95206.78
2023-05-20T20:11:28.080Z,95201.13
2023-05-20T20:13:58.410Z,95199.50
2023-05-20T20:16:26.853Z,95202.09
2023-05-20T20:18:55.266Z,95204.22
2023-05-20T20:21:25.667Z,95201.13
2023-05-20T20:23:53.954Z,95208.25
2023-05-20T20:26:25.818Z,95207.13
2023-05-20T20:28:53.729Z,95200.63
2023-05-20T20:31:22.766Z,95210.75
2023-05-20T20:33:51.508Z,95209.41
2023-05-20T20:36:19.156Z,95217.66
2023-05-20T20:38:47.730Z,95215.22
2023-05-20T20:41:16.674Z,95220.25
2023-05-20T20:43:45.074Z,95220.72
2023-05-20T20:46:14.683Z,95215.84
2023-05-20T20:48:45.991Z,95212.88
2023-05-20T20:51:14.280Z,95217.31
2023-05-20T20:53:42.857Z,95212.94
2023-05-20T20:56:11.348Z,95212.03
2023-05-20T20:58:39.843Z,95203.13
2023-05-20T21:01:10.106Z,95210.50
2023-05-20T21:03:40.369Z,95209.28
2023-05-20T21:06:09.992Z,95207.00
2023-05-20T21:08:37.632Z,95206.44
2023-05-20T21:11:05.855Z,95211.06
2023-05-20T21:13:33.919Z,95204.56
2023-05-20T21:16:01.605Z,95208.22
2023-05-20T21:18:29.281Z,95203.31
2023-05-20T21:20:57.446Z,95199.53
2023-05-20T21:23:26.415Z,95203.25
2023-05-20T21:25:54.094Z,95202.56
2023-05-20T21:28:22.415Z,95203.88
2023-05-20T21:30:50.518Z,95201.81
2023-05-20T21:33:18.232Z,95202.19
2023-05-20T21:35:49.561Z,95197.28
2023-05-20T21:38:17.409Z,95198.06
2023-05-20T21:40:48.622Z,95193.28
2023-05-20T21:43:16.448Z,95189.13
2023-05-20T21:45:45.805Z,95198.88
2023-05-20T21:48:13.800Z,95196.19
2023-05-20T21:50:43.227Z,95195.53
2023-05-20T21:53:11.101Z,95197.16
2023-05-20T21:55:39.292Z,95208.06
2023-05-20T21:58:08.296Z,95203.66
2023-05-20T22:00:36.543Z,95191.63
2023-05-20T22:03:04.475Z,95194.72
2023-05-20T22:05:34.719Z,95194.59
2023-05-20T22:08:03.395Z,95200.97
2023-05-20T22:10:34.355Z,95195.84
2023-05-20T22:13:02.959Z,95194.22
2023-05-20T22:15:32.274Z,95200.38
2023-05-20T22:18:00.114Z,95197.94
2023-05-20T22:20:28.641Z,95190.19
2023-05-20T22:22:56.341Z,95188.56
2023-05-20T22:25:23.997Z,95191.91
2023-05-20T22:27:51.934Z,95191.09
2023-05-20T22:30:19.580Z,95192.06
2023-05-20T22:32:48.819Z,95183.13
2023-05-20T22:35:16.727Z,95187.75
2023-05-20T22:37:44.704Z,95177.56
2023-05-20T22:40:12.783Z,95180.47
2023-05-20T22:42:40.776Z,95183.81
2023-05-20T22:45:09.757Z,95185.31
2023-05-20T22:47:37.419Z,95180.91
2023-05-20T22:50:07.959Z,95180.56
2023-05-20T22:52:36.710Z,95172.69
2023-05-20T22:55:04.688Z,95176.50
2023-05-20T22:57:32.732Z,95178.56
2023-05-20T23:00:00.779Z,95174.75
2023-05-20T23:02:30.387Z,95186.44
2023-05-20T23:04:58.362Z,95179.13
2023-05-20T23:07:27.849Z,95175.09
2023-05-20T23:09:55.730Z,95174.72
2023-05-20T23:12:23.525Z,95174.94
2023-05-20T23:14:51.714Z,95172.75
2023-05-20T23:17:19.389Z,95164.19
2023-05-20T23:19:47.375Z,95169.16
2023-05-20T23:22:15.251Z,95166.13
2023-05-20T23:24:44.386Z,95156.97
2023-05-20T23:27:12.011Z,95156.59
2023-05-20T23:29:39.702Z,95158.91
2023-05-20T23:32:07.907Z,95153.59
2023-05-20T23:34:35.997Z,95154.97
2023-05-20T23:37:03.667Z,95152.09
2023-05-20T23:39:31.544Z,95157.41
2023-05-20T23:42:00.994Z,95156.59
2023-05-20T23:44:28.650Z,95153.13
2023-05-20T23:46:56.279Z,95150.69
2023-05-20T23:49:27.237Z,95145.63
2023-05-20T23:51:55.346Z,95146.06
2023-05-20T23:54:23.440Z,95152.88
2023-05-20T23:56:51.137Z,95143.28
2023-05-20T23:59:20.229Z,95146.38
